Time;durP1;ratioP1;P1;durP2;ratioP2;P2;SDS_P1;SDS_P2;PMS_P1;PMS_P2;Temp;Humidity;BMP_temperature;BMP_pressure;BME280_temperature;BME280_humidity;BME280_pressure;Samples;Min_cycle;Max_cycle;Signal;HPM_P1;HPM_P2
2023/01/23 00:00:32;;;;;;;51.27;23.47;;;2.10;99.90;;;;;;5034010;28;20033;-50
2023/01/23 00:02:58;;;;;;;48.77;22.43;;;2.10;99.90;;;;;;5034153;28;20030;-49
2023/01/23 00:05:24;;;;;;;46.33;23.03;;;2.10;99.90;;;;;;5033843;28;20021;-55
2023/01/23 00:07:50;;;;;;;46.57;22.07;;;2.10;99.90;;;;;;5033764;28;20036;-51
2023/01/23 00:10:16;;;;;;;51.90;21.93;;;2.10;99.90;;;;;;5033859;28;20061;-51
2023/01/23 00:12:44;;;;;;;53.47;22.43;;;2.10;99.90;;;;;;5033885;28;20036;-50
2023/01/23 00:15:11;;;;;;;46.87;21.97;;;2.10;99.90;;;;;;5033828;28;20032;-52
2023/01/23 00:17:40;;;;;;;43.80;21.27;;;2.10;99.90;;;;;;5033562;28;20033;-51
2023/01/23 00:20:07;;;;;;;52.00;22.80;;;2.10;99.90;;;;;;5033881;28;20025;-52
2023/01/23 00:22:32;;;;;;;46.23;22.27;;;2.10;99.90;;;;;;5033644;28;20117;-51
2023/01/23 00:24:58;;;;;;;46.97;21.70;;;2.10;99.90;;;;;;5033447;28;20041;-53
2023/01/23 00:27:24;;;;;;;44.40;21.47;;;2.20;99.90;;;;;;5033645;28;20036;-50
2023/01/23 00:29:51;;;;;;;44.63;21.63;;;2.20;99.90;;;;;;5033673;28;20363;-53
2023/01/23 00:32:18;;;;;;;42.20;20.90;;;2.20;99.90;;;;;;5015879;28;20095;-53
2023/01/23 00:34:45;;;;;;;42.80;21.27;;;2.20;99.90;;;;;;5015563;28;20045;-52
2023/01/23 00:37:10;;;;;;;43.27;20.60;;;2.20;99.90;;;;;;5033250;28;20029;-52
2023/01/23 00:39:36;;;;;;;43.53;20.90;;;2.20;99.90;;;;;;5015509;28;20079;-51
2023/01/23 00:42:02;;;;;;;48.03;21.70;;;2.20;99.90;;;;;;5015529;28;20426;-49
2023/01/23 00:44:30;;;;;;;42.27;20.20;;;2.20;99.90;;;;;;5033255;28;20032;-48
2023/01/23 00:46:57;;;;;;;45.60;22.07;;;2.20;99.90;;;;;;5033450;28;20201;-54
2023/01/23 00:49:24;;;;;;;47.10;21.63;;;2.20;99.90;;;;;;5015348;28;20033;-49
2023/01/23 00:51:49;;;;;;;45.43;20.93;;;2.20;99.90;;;;;;5015340;28;20086;-52
2023/01/23 00:54:16;;;;;;;45.17;21.63;;;2.20;99.90;;;;;;5033336;28;20508;-49
2023/01/23 00:56:42;;;;;;;45.97;21.23;;;2.20;99.90;;;;;;5032883;28;20029;-51
2023/01/23 00:59:08;;;;;;;49.10;21.63;;;2.20;99.90;;;;;;5031842;28;20029;-48
2023/01/23 01:01:34;;;;;;;50.77;23.27;;;2.20;99.90;;;;;;5015183;28;20034;-48
2023/01/23 01:03:59;;;;;;;49.90;23.03;;;2.20;99.90;;;;;;5015084;28;20053;-50
2023/01/23 01:06:26;;;;;;;49.73;23.20;;;2.30;99.90;;;;;;5032775;28;20521;-52
2023/01/23 01:08:51;;;;;;;48.60;22.90;;;2.30;99.90;;;;;;5032787;28;20025;-49
2023/01/23 01:11:17;;;;;;;44.10;21.97;;;2.30;99.90;;;;;;5033003;28;20040;-49
2023/01/23 01:13:43;;;;;;;44.83;21.30;;;2.30;99.90;;;;;;5014857;28;20040;-50
2023/01/23 01:16:10;;;;;;;47.97;22.87;;;2.30;99.90;;;;;;5014957;28;20124;-53
2023/01/23 01:18:36;;;;;;;44.73;21.47;;;2.30;99.90;;;;;;5032391;28;20116;-53
2023/01/23 01:21:09;;;;;;;46.23;22.30;;;2.30;99.90;;;;;;5032631;28;20029;-49
2023/01/23 01:23:35;;;;;;;45.33;21.80;;;2.30;99.90;;;;;;5014764;28;20030;-52
2023/01/23 01:26:01;;;;;;;48.83;21.97;;;2.30;99.90;;;;;;5014816;28;20084;-54
2023/01/23 01:28:32;;;;;;;47.40;21.27;;;2.30;99.90;;;;;;5032269;28;20051;-52
2023/01/23 01:31:02;;;;;;;47.17;22.03;;;2.30;99.90;;;;;;5014742;28;20112;-51
2023/01/23 01:33:27;;;;;;;45.17;20.27;;;2.30;99.90;;;;;;5032274;28;20484;-52
2023/01/23 01:35:55;;;;;;;42.73;20.90;;;2.30;99.90;;;;;;5014475;28;20128;-52
2023/01/23 01:38:21;;;;;;;39.07;19.80;;;2.30;99.90;;;;;;5032238;28;20041;-50
2023/01/23 01:40:48;;;;;;;39.20;19.47;;;2.30;99.90;;;;;;5014498;28;20029;-52
2023/01/23 01:43:21;;;;;;;37.63;19.40;;;2.30;99.90;;;;;;5014565;28;20071;-53
2023/01/23 01:46:15;;;;;;;38.03;19.37;;;2.30;99.90;;;;;;5014402;28;20125;-50
2023/01/23 01:49:02;;;;;;;37.30;18.63;;;2.30;99.90;;;;;;5014016;28;20033;-52
2023/01/23 01:51:37;;;;;;;38.97;18.50;;;2.30;99.90;;;;;;5014565;28;20049;-50
2023/01/23 01:54:22;;;;;;;36.97;17.93;;;2.30;99.90;;;;;;5014178;28;20035;-50
2023/01/23 01:56:59;;;;;;;36.60;17.90;;;2.40;99.90;;;;;;5013969;28;20030;-52
2023/01/23 01:59:27;;;;;;;39.53;18.50;;;2.30;99.90;;;;;;5014173;28;20128;-49
2023/01/23 02:02:04;;;;;;;39.10;18.43;;;2.30;99.90;;;;;;5014044;28;20033;-51
2023/01/23 02:04:35;;;;;;;35.73;17.60;;;2.30;99.90;;;;;;5031762;28;20116;-49
2023/01/23 02:07:07;;;;;;;36.07;17.30;;;2.30;99.90;;;;;;5031635;28;20073;-53
2023/01/23 02:09:34;;;;;;;31.80;15.47;;;2.30;99.90;;;;;;5013782;28;20116;-55
2023/01/23 02:12:03;;;;;;;36.90;16.53;;;2.20;99.90;;;;;;5013971;28;20132;-53
2023/01/23 02:14:29;;;;;;;31.88;15.23;;;2.20;99.90;;;;;;5031467;28;20080;-51
2023/01/23 02:16:59;;;;;;;30.13;15.70;;;2.20;99.90;;;;;;5031269;28;20041;-53
2023/01/23 02:19:39;;;;;;;35.20;14.30;;;2.20;99.90;;;;;;5031346;28;20029;-53
2023/01/23 02:22:33;;;;;;;33.42;16.00;;;2.20;99.90;;;;;;5031593;28;20056;-49
2023/01/23 02:25:27;;;;;;;34.33;16.10;;;2.20;99.90;;;;;;5013582;28;20045;-49
2023/01/23 02:27:53;;;;;;;30.33;15.40;;;2.20;99.90;;;;;;5013469;28;20103;-52
2023/01/23 02:30:20;;;;;;;26.73;14.73;;;2.20;99.90;;;;;;5031200;28;20107;-51
2023/01/23 02:32:46;;;;;;;30.90;16.10;;;2.20;99.90;;;;;;5013484;28;20029;-52
2023/01/23 02:35:28;;;;;;;28.93;15.20;;;2.30;99.90;;;;;;5031109;28;20024;-52
2023/01/23 02:38:00;;;;;;;30.03;15.53;;;2.30;99.90;;;;;;5013378;28;20033;-53
2023/01/23 02:40:39;;;;;;;30.00;15.55;;;2.30;99.90;;;;;;5013413;28;20033;-51
2023/01/23 02:43:14;;;;;;;29.70;14.83;;;2.30;99.90;;;;;;5013254;28;20036;-51
2023/01/23 02:45:46;;;;;;;27.33;14.70;;;2.30;99.90;;;;;;5013270;28;20032;-50
2023/01/23 02:48:14;;;;;;;29.98;15.55;;;2.30;99.90;;;;;;5013173;28;20128;-51
2023/01/23 02:50:42;;;;;;;29.50;15.40;;;2.30;99.90;;;;;;5013118;28;20037;-54
2023/01/23 02:53:08;;;;;;;29.43;15.33;;;2.30;99.90;;;;;;5031038;28;20056;-50
2023/01/23 02:55:36;;;;;;;27.77;15.43;;;2.30;99.90;;;;;;5012925;28;20068;-52
2023/01/23 03:00:48;;;;;;;30.20;15.93;;;2.20;99.90;;;;;;5013136;28;20533;-53
2023/01/23 03:03:14;;;;;;;31.27;16.20;;;2.20;99.90;;;;;;5012998;28;20030;-50
2023/01/23 03:05:40;;;;;;;29.43;16.07;;;2.10;99.90;;;;;;5030622;28;20112;-53
2023/01/23 03:08:06;;;;;;;29.20;15.13;;;2.10;99.90;;;;;;5012718;28;20075;-50
2023/01/23 03:10:32;;;;;;;31.77;16.23;;;2.00;99.90;;;;;;5012979;28;20068;-52
2023/01/23 03:13:02;;;;;;;32.50;16.37;;;2.00;99.90;;;;;;5030691;28;20060;-53
2023/01/23 03:15:29;;;;;;;31.50;15.87;;;2.00;99.90;;;;;;5012576;28;20482;-51
2023/01/23 03:17:56;;;;;;;33.07;17.40;;;2.00;99.90;;;;;;5012652;28;20052;-52
2023/01/23 03:20:25;;;;;;;32.97;16.43;;;2.00;99.90;;;;;;5030294;28;20068;-51
2023/01/23 03:22:52;;;;;;;38.17;17.67;;;2.00;99.90;;;;;;5012659;28;20040;-51
2023/01/23 03:25:18;;;;;;;39.57;17.27;;;2.00;99.90;;;;;;5030425;28;20040;-52
2023/01/23 03:27:44;;;;;;;32.53;17.03;;;2.00;99.90;;;;;;5012547;28;20026;-51
2023/01/23 03:30:13;;;;;;;34.43;17.60;;;2.00;99.90;;;;;;5030138;28;20171;-53
2023/01/23 03:32:40;;;;;;;35.47;17.33;;;2.00;99.90;;;;;;5012694;28;20452;-54
2023/01/23 03:35:09;;;;;;;34.63;17.27;;;2.00;99.90;;;;;;5012817;28;20037;-52
2023/01/23 03:37:35;;;;;;;38.10;18.02;;;2.00;99.90;;;;;;5012478;28;20057;-53
2023/01/23 03:42:46;;;;;;;33.23;17.07;;;2.00;99.90;;;;;;5012527;28;20022;-53
2023/01/23 03:45:18;;;;;;;31.60;16.20;;;2.00;99.90;;;;;;5012418;28;20025;-53
2023/01/23 03:47:44;;;;;;;35.47;17.50;;;2.00;99.90;;;;;;5012232;28;20021;-52
2023/01/23 03:50:10;;;;;;;34.97;17.07;;;2.00;99.90;;;;;;5012340;28;20120;-52
2023/01/23 03:52:38;;;;;;;32.20;16.47;;;2.00;99.90;;;;;;5012518;28;20032;-53
2023/01/23 03:55:04;;;;;;;36.23;17.43;;;2.00;99.90;;;;;;5012379;28;20080;-52
2023/01/23 03:57:30;;;;;;;33.63;17.70;;;2.00;99.90;;;;;;5012216;28;20087;-50
2023/01/23 04:00:04;;;;;;;31.30;17.33;;;2.00;99.90;;;;;;5012433;28;20033;-53
2023/01/23 04:02:39;;;;;;;33.23;17.70;;;2.00;99.90;;;;;;5030203;28;20091;-51
2023/01/23 04:05:06;;;;;;;35.37;16.73;;;2.00;99.90;;;;;;5012324;28;20033;-51
2023/01/23 04:07:32;;;;;;;32.77;16.07;;;2.00;99.90;;;;;;5012268;28;20079;-54
2023/01/23 04:09:58;;;;;;;37.40;17.20;;;2.00;99.90;;;;;;5012294;28;20117;-52
2023/01/23 04:12:24;;;;;;;32.33;17.23;;;2.10;99.90;;;;;;5012319;28;20034;-53
2023/01/23 04:14:50;;;;;;;36.23;17.57;;;2.10;99.90;;;;;;5012193;28;20033;-53
2023/01/23 04:17:15;;;;;;;33.20;16.60;;;2.10;99.90;;;;;;5029884;28;20034;-53
2023/01/23 04:19:41;;;;;;;31.73;16.67;;;2.10;99.90;;;;;;5012264;28;20091;-52
2023/01/23 04:22:08;;;;;;;33.13;16.83;;;2.10;99.90;;;;;;5030027;28;20462;-50
2023/01/23 04:24:40;;;;;;;33.73;16.73;;;2.10;99.90;;;;;;5012186;28;20499;-52
2023/01/23 04:27:06;;;;;;;36.57;18.10;;;2.10;99.90;;;;;;5012024;28;20026;-50
2023/01/23 04:29:34;;;;;;;35.03;17.17;;;2.10;99.90;;;;;;4996199;28;20054;-52
2023/01/23 04:32:02;;;;;;;34.63;18.47;;;2.10;99.90;;;;;;5013037;28;20394;-51
2023/01/23 04:34:29;;;;;;;34.53;18.57;;;2.10;99.90;;;;;;5015867;28;20029;-53
2023/01/23 04:36:56;;;;;;;37.57;18.20;;;2.10;99.90;;;;;;5015516;28;20502;-50
2023/01/23 04:39:22;;;;;;;34.90;17.80;;;2.10;99.90;;;;;;5015721;28;20036;-53
2023/01/23 04:41:49;;;;;;;34.93;16.90;;;2.10;99.90;;;;;;5015947;28;20049;-53
2023/01/23 04:44:37;;;;;;;35.70;16.63;;;2.10;99.90;;;;;;5024999;28;20486;-52
2023/01/23 04:47:26;;;;;;;36.53;17.67;;;2.10;99.90;;;;;;5019912;28;20350;-53
2023/01/23 04:49:52;;;;;;;35.93;18.13;;;2.10;99.90;;;;;;5015722;28;20059;-50
2023/01/23 04:52:18;;;;;;;37.20;18.20;;;2.10;99.90;;;;;;5015432;28;20466;-53
2023/01/23 04:54:51;;;;;;;37.03;18.50;;;2.10;99.90;;;;;;5033147;28;20520;-53
2023/01/23 04:57:17;;;;;;;37.20;17.83;;;2.10;99.90;;;;;;5032998;28;20061;-52
2023/01/23 04:59:43;;;;;;;39.83;18.67;;;2.10;99.90;;;;;;5015323;28;20030;-52
2023/01/23 05:02:09;;;;;;;36.90;17.90;;;2.10;99.90;;;;;;4999232;28;20037;-50
2023/01/23 05:04:40;;;;;;;34.43;16.73;;;2.10;99.90;;;;;;5015414;28;20029;-52
2023/01/23 05:07:08;;;;;;;38.90;17.93;;;2.20;99.90;;;;;;5015408;28;20029;-52
2023/01/23 05:09:38;;;;;;;36.77;17.73;;;2.20;99.90;;;;;;5015302;28;20036;-48
2023/01/23 05:12:05;;;;;;;38.20;18.37;;;2.10;99.90;;;;;;5015423;28;20037;-50
2023/01/23 05:14:33;;;;;;;32.72;16.98;;;2.10;99.90;;;;;;5015279;28;20033;-49
2023/01/23 05:16:59;;;;;;;35.97;17.87;;;2.20;99.90;;;;;;5015120;28;20059;-52
2023/01/23 05:19:30;;;;;;;38.07;18.23;;;2.20;99.90;;;;;;5015361;28;20390;-52
2023/01/23 05:22:00;;;;;;;39.15;18.42;;;2.20;99.90;;;;;;5015251;28;20037;-51
2023/01/23 05:24:26;;;;;;;37.10;18.40;;;2.20;99.90;;;;;;5015161;28;20038;-51
2023/01/23 05:26:54;;;;;;;41.17;19.17;;;2.10;99.90;;;;;;5014717;28;20030;-48
2023/01/23 05:29:20;;;;;;;36.20;18.30;;;2.20;99.90;;;;;;5014663;28;20037;-52
2023/01/23 05:31:58;;;;;;;37.87;18.70;;;2.10;99.90;;;;;;5014907;28;20466;-53
2023/01/23 05:34:35;;;;;;;40.07;19.87;;;2.10;99.90;;;;;;5032680;28;20037;-52
2023/01/23 05:37:03;;;;;;;37.00;18.77;;;2.10;99.90;;;;;;5014530;28;20065;-52
2023/01/23 05:39:32;;;;;;;39.50;19.13;;;2.10;99.90;;;;;;5032375;28;20029;-53
2023/01/23 05:41:58;;;;;;;38.33;19.13;;;2.10;99.90;;;;;;5014615;28;20034;-53
2023/01/23 05:44:48;;;;;;;;;;;2.20;99.90;;;;;;5014478;28;20033;-49
2023/01/23 05:47:24;;;;;;;39.17;18.70;;;2.20;99.90;;;;;;5014428;28;19909;-49
2023/01/23 05:49:50;;;;;;;36.33;18.00;;;2.20;99.90;;;;;;5014448;28;20580;-50
2023/01/23 05:52:16;;;;;;;33.97;17.23;;;2.20;99.90;;;;;;5014512;28;20037;-49
2023/01/23 05:54:42;;;;;;;32.80;17.40;;;2.20;99.90;;;;;;5014308;28;20032;-49
2023/01/23 05:57:10;;;;;;;34.70;17.27;;;2.20;99.90;;;;;;5014308;28;20083;-50
2023/01/23 06:00:13;;;;;;;34.33;18.20;;;2.20;99.90;;;;;;5014783;28;20033;-52
2023/01/23 06:02:43;;;;;;;36.03;18.30;;;2.20;99.90;;;;;;5014382;28;20501;-51
2023/01/23 06:05:35;;;;;;;37.67;18.47;;;2.20;99.90;;;;;;4993689;28;20026;-50
2023/01/23 06:08:07;;;;;;;36.60;18.27;;;2.20;99.90;;;;;;5013906;28;20490;-49
2023/01/23 06:10:36;;;;;;;37.20;19.07;;;2.20;99.90;;;;;;5014130;28;20025;-50
2023/01/23 06:13:02;;;;;;;36.22;17.58;;;2.20;99.90;;;;;;5031797;28;20021;-50
2023/01/23 06:15:28;;;;;;;39.00;20.03;;;2.20;99.90;;;;;;5013960;28;20099;-48
2023/01/23 06:17:55;;;;;;;39.23;18.70;;;2.20;99.90;;;;;;5013848;28;20025;-47
2023/01/23 06:20:22;;;;;;;42.83;20.80;;;2.20;99.90;;;;;;5013824;28;20025;-49
2023/01/23 06:22:48;;;;;;;41.07;22.00;;;2.20;99.90;;;;;;5013903;28;20080;-50
2023/01/23 06:25:14;;;;;;;42.00;20.30;;;2.20;99.90;;;;;;5031232;28;20043;-49
2023/01/23 06:27:40;;;;;;;42.20;19.67;;;2.20;99.90;;;;;;5013653;28;20068;-49
2023/01/23 06:30:08;;;;;;;41.17;19.97;;;2.20;99.90;;;;;;5013592;28;20041;-50
2023/01/23 06:32:40;;;;;;;41.53;20.87;;;2.20;99.90;;;;;;5014009;28;20025;-50
2023/01/23 06:35:07;;;;;;;39.80;20.80;;;2.20;99.90;;;;;;5013451;28;20426;-51
2023/01/23 06:37:37;;;;;;;;;;;2.20;99.90;;;;;;5013901;28;20056;-49
2023/01/23 06:40:03;;;;;;;39.90;19.83;;;2.20;99.90;;;;;;5013345;28;19909;-50
2023/01/23 06:42:30;;;;;;;44.80;20.27;;;2.20;99.90;;;;;;5013559;28;20052;-50
2023/01/23 06:44:57;;;;;;;43.20;21.17;;;2.20;99.90;;;;;;5013261;28;20516;-51
2023/01/23 06:47:24;;;;;;;41.23;20.20;;;2.20;99.90;;;;;;5013160;28;20033;-49
2023/01/23 06:49:57;;;;;;;44.03;21.37;;;2.20;99.90;;;;;;5013338;28;20446;-50
2023/01/23 06:52:23;;;;;;;51.17;22.27;;;2.20;99.90;;;;;;5013542;28;20132;-51
2023/01/23 06:54:50;;;;;;;43.40;21.67;;;2.20;99.90;;;;;;5013024;28;20193;-49
2023/01/23 06:57:16;;;;;;;44.33;22.13;;;2.20;99.90;;;;;;5012143;28;20036;-51
2023/01/23 06:59:43;;;;;;;50.03;22.43;;;2.20;99.90;;;;;;5013253;28;20033;-51
2023/01/23 07:02:12;;;;;;;50.23;22.50;;;2.20;99.90;;;;;;5013269;28;20026;-51
2023/01/23 07:04:47;;;;;;;47.53;21.73;;;2.20;99.90;;;;;;5012900;28;20428;-53
2023/01/23 07:07:13;;;;;;;49.90;22.97;;;2.20;99.90;;;;;;5030630;28;20398;-53
2023/01/23 07:09:40;;;;;;;47.53;22.77;;;2.30;99.90;;;;;;5013168;28;20029;-53
2023/01/23 07:12:14;;;;;;;50.20;22.17;;;2.30;99.90;;;;;;5013165;28;20497;-53
2023/01/23 07:14:40;;;;;;;50.63;22.27;;;2.30;99.90;;;;;;5012798;28;20128;-53
2023/01/23 07:17:08;;;;;;;49.07;21.97;;;2.30;99.90;;;;;;5012644;28;20467;-52
2023/01/23 07:19:34;;;;;;;48.83;22.00;;;2.30;99.90;;;;;;5012851;28;20502;-54
2023/01/23 07:22:03;;;;;;;51.53;22.52;;;2.30;99.90;;;;;;5012915;28;20045;-53
2023/01/23 07:24:31;;;;;;;49.13;22.73;;;2.40;99.90;;;;;;5030353;28;20025;-53
2023/01/23 07:26:57;;;;;;;48.37;21.77;;;2.40;99.90;;;;;;5030551;28;20033;-53
2023/01/23 07:29:23;;;;;;;46.87;21.00;;;2.40;99.90;;;;;;5030305;28;20033;-50
2023/01/23 07:31:49;;;;;;;45.87;21.10;;;2.40;99.90;;;;;;5030478;28;20045;-52
2023/01/23 07:34:14;;;;;;;46.30;21.20;;;2.40;99.90;;;;;;5030509;28;20041;-51
2023/01/23 07:36:40;;;;;;;44.77;20.63;;;2.40;99.90;;;;;;5030290;28;20382;-51
2023/01/23 07:39:06;;;;;;;43.93;19.53;;;2.40;99.90;;;;;;5030236;28;20025;-50
2023/01/23 07:41:31;;;;;;;41.97;19.20;;;2.40;99.90;;;;;;5030745;28;20164;-52
2023/01/23 07:44:01;;;;;;;;;;;2.50;99.90;;;;;;5013171;28;20038;-53
2023/01/23 07:46:27;;;;;;;41.37;17.27;;;2.50;99.90;;;;;;5030045;28;19913;-50
2023/01/23 07:48:53;;;;;;;43.60;19.77;;;2.50;99.90;;;;;;5030184;28;20026;-52
2023/01/23 07:51:19;;;;;;;41.80;18.37;;;2.50;99.90;;;;;;5030278;28;20112;-54
2023/01/23 07:53:44;;;;;;;39.23;17.57;;;2.50;99.90;;;;;;5030190;28;20494;-50
2023/01/23 07:56:10;;;;;;;38.60;18.17;;;2.40;99.90;;;;;;5030244;28;20126;-54
2023/01/23 07:58:36;;;;;;;41.03;18.20;;;2.40;99.90;;;;;;5029969;28;20022;-53
2023/01/23 08:01:09;;;;;;;37.30;17.50;;;2.50;99.90;;;;;;5030153;28;20501;-54
2023/01/23 08:03:34;;;;;;;40.27;19.20;;;2.50;99.90;;;;;;5030213;28;20033;-53
2023/01/23 08:06:00;;;;;;;39.80;18.47;;;2.50;99.90;;;;;;5030348;28;20441;-53
2023/01/23 08:08:26;;;;;;;40.43;19.17;;;2.50;99.90;;;;;;5032979;28;20501;-51
2023/01/23 08:10:52;;;;;;;39.40;19.63;;;2.60;99.90;;;;;;5034030;28;20038;-53
2023/01/23 08:13:17;;;;;;;40.77;19.63;;;2.60;99.90;;;;;;5033958;28;20091;-53
2023/01/23 08:15:45;;;;;;;40.93;20.20;;;2.60;99.90;;;;;;5033795;28;20029;-54
2023/01/23 08:18:11;;;;;;;39.60;18.03;;;2.50;99.90;;;;;;5033783;28;20039;-55
2023/01/23 08:20:36;;;;;;;39.17;18.80;;;2.50;99.90;;;;;;5033899;28;20112;-53
2023/01/23 08:23:02;;;;;;;45.97;19.43;;;2.60;99.90;;;;;;5033752;28;20029;-50
2023/01/23 08:25:28;;;;;;;41.50;18.23;;;2.60;99.90;;;;;;5033549;28;20137;-54
2023/01/23 08:27:54;;;;;;;41.47;18.43;;;2.60;99.90;;;;;;5033575;28;20035;-53
2023/01/23 08:30:19;;;;;;;35.37;17.17;;;2.60;99.90;;;;;;5033412;28;20052;-54
2023/01/23 08:32:45;;;;;;;38.17;17.90;;;2.60;99.90;;;;;;5033523;28;20112;-54
2023/01/23 08:35:11;;;;;;;38.80;18.40;;;2.60;99.90;;;;;;5033624;28;20034;-53
2023/01/23 08:37:37;;;;;;;36.67;17.23;;;2.60;99.90;;;;;;5033351;28;20034;-53
2023/01/23 08:40:03;;;;;;;42.87;18.47;;;2.70;99.90;;;;;;5033362;28;20052;-54
2023/01/23 08:42:29;;;;;;;37.77;18.23;;;2.70;99.90;;;;;;5033472;28;20036;-53
2023/01/23 08:44:55;;;;;;;36.27;16.80;;;2.70;99.90;;;;;;5033197;28;20022;-53
2023/01/23 08:47:21;;;;;;;41.47;18.77;;;2.70;99.90;;;;;;5033202;28;20033;-53
2023/01/23 08:49:52;;;;;;;40.00;18.50;;;2.70;99.90;;;;;;5033537;28;20396;-53
2023/01/23 08:52:17;;;;;;;39.37;18.73;;;2.80;99.90;;;;;;5033128;28;20387;-51
2023/01/23 08:54:43;;;;;;;39.47;19.07;;;2.80;99.90;;;;;;5032950;28;20086;-53
2023/01/23 08:57:09;;;;;;;39.73;19.27;;;2.80;99.90;;;;;;5032833;28;20029;-54
2023/01/23 08:59:34;;;;;;;40.33;17.57;;;2.80;99.90;;;;;;5032880;28;20148;-52
2023/01/23 09:02:01;;;;;;;45.30;19.33;;;2.80;99.90;;;;;;5033172;28;20037;-52
2023/01/23 09:04:26;;;;;;;43.03;18.83;;;2.80;99.90;;;;;;5032875;28;20033;-53
2023/01/23 09:06:52;;;;;;;43.23;19.63;;;2.70;99.90;;;;;;5032793;28;20044;-54
2023/01/23 09:09:18;;;;;;;44.60;19.17;;;2.80;99.90;;;;;;5032831;28;20029;-51
2023/01/23 09:11:45;;;;;;;39.67;18.30;;;2.80;99.90;;;;;;5032995;28;20032;-53
2023/01/23 09:14:11;;;;;;;44.70;19.93;;;2.80;99.90;;;;;;5032834;28;20037;-54
2023/01/23 09:16:38;;;;;;;41.00;19.57;;;2.80;99.90;;;;;;5032508;28;20490;-51
2023/01/23 09:19:03;;;;;;;38.20;17.83;;;2.80;99.90;;;;;;5031699;28;20026;-52
2023/01/23 09:21:29;;;;;;;43.67;20.03;;;2.80;99.90;;;;;;5032824;28;20300;-54
2023/01/23 09:23:55;;;;;;;39.53;18.73;;;2.90;99.90;;;;;;5032862;28;20478;-52
2023/01/23 09:26:21;;;;;;;36.73;18.87;;;3.00;99.90;;;;;;5032909;28;20076;-54
2023/01/23 09:28:47;;;;;;;40.50;18.40;;;3.10;99.90;;;;;;5046145;23;20044;-49
2023/01/23 09:31:13;;;;;;;36.27;18.17;;;3.10;99.90;;;;;;5030894;28;20046;-52
2023/01/23 09:33:39;;;;;;;34.13;17.33;;;3.20;99.90;;;;;;5032421;28;20113;-51
2023/01/23 09:36:06;;;;;;;32.63;17.33;;;3.20;99.90;;;;;;5032457;28;20084;-50
2023/01/23 09:38:32;;;;;;;30.53;15.90;;;3.30;99.90;;;;;;5032059;28;20357;-50
2023/01/23 09:41:05;;;;;;;30.07;15.80;;;3.30;99.90;;;;;;5032433;28;20052;-52
2023/01/23 09:43:31;;;;;;;28.93;15.37;;;3.30;99.90;;;;;;5032144;28;20021;-51
2023/01/23 09:46:06;;;;;;;28.97;14.83;;;3.20;99.90;;;;;;5032377;28;20537;-51
2023/01/23 09:48:47;;;;;;;28.67;14.30;;;3.30;99.90;;;;;;5032012;28;20029;-48
2023/01/23 09:51:25;;;;;;;27.60;14.10;;;3.30;99.90;;;;;;5032238;28;20025;-52
2023/01/23 09:53:57;;;;;;;27.93;14.57;;;3.30;99.90;;;;;;5032136;28;20508;-50
2023/01/23 09:56:37;;;;;;;28.97;14.70;;;3.30;99.90;;;;;;5031896;28;20033;-53
2023/01/23 09:59:17;;;;;;;29.43;15.07;;;3.30;99.90;;;;;;5032184;28;20453;-53
2023/01/23 10:01:42;;;;;;;25.60;13.40;;;3.30;99.90;;;;;;5032217;28;20068;-50
2023/01/23 10:04:11;;;;;;;25.80;12.73;;;3.30;99.90;;;;;;5031820;28;20064;-51
2023/01/23 10:06:52;;;;;;;23.93;12.63;;;3.30;99.90;;;;;;5031628;28;20025;-51
2023/01/23 10:09:56;;;;;;;22.87;12.17;;;3.20;99.90;;;;;;5031978;28;20044;-49
2023/01/23 10:12:38;;;;;;;24.30;12.43;;;3.30;99.90;;;;;;5026279;28;20041;-52
2023/01/23 10:15:18;;;;;;;23.43;11.63;;;3.30;99.90;;;;;;5031585;28;20102;-50
2023/01/23 10:18:22;;;;;;;23.87;12.57;;;3.30;99.90;;;;;;5031538;28;20065;-50
2023/01/23 10:21:03;;;;;;;22.07;12.70;;;3.30;99.90;;;;;;5031477;28;20037;-53
2023/01/23 10:23:41;;;;;;;20.90;11.63;;;3.40;99.90;;;;;;5031371;28;20025;-50
2023/01/23 10:26:24;;;;;;;24.77;10.83;;;3.40;99.90;;;;;;5031683;28;20562;-51
2023/01/23 10:28:56;;;;;;;20.97;11.20;;;3.40;99.90;;;;;;5031373;28;20068;-48
2023/01/23 10:31:37;;;;;;;21.80;11.50;;;3.40;99.90;;;;;;5031457;28;20490;-49
2023/01/23 10:34:08;;;;;;;22.43;12.10;;;3.40;99.90;;;;;;5031479;28;20035;-48
2023/01/23 10:36:49;;;;;;;25.03;12.57;;;3.40;99.90;;;;;;5031075;28;20052;-47
2023/01/23 10:39:26;;;;;;;21.33;11.73;;;3.40;99.90;;;;;;5031286;28;20060;-47
2023/01/23 10:41:52;;;;;;;21.27;11.37;;;3.40;99.90;;;;;;5031226;28;20029;-47
2023/01/23 10:44:19;;;;;;;21.47;11.87;;;3.50;99.90;;;;;;5030940;28;20048;-48
2023/01/23 10:46:48;;;;;;;23.10;11.73;;;3.50;99.90;;;;;;5031229;28;20037;-49
2023/01/23 10:49:37;;;;;;;;;;;3.50;99.90;;;;;;5031626;28;20155;-48
2023/01/23 10:52:23;;;;;;;19.27;10.77;;;3.50;99.90;;;;;;5031171;28;19923;-48
2023/01/23 10:54:49;;;;;;;19.37;11.10;;;3.60;99.90;;;;;;5030867;28;20040;-49
2023/01/23 10:57:15;;;;;;;18.73;9.83;;;3.50;99.90;;;;;;5030794;28;20394;-50
2023/01/23 10:59:59;;;;;;;20.10;10.80;;;3.60;99.90;;;;;;5030772;28;20030;-49
2023/01/23 11:02:33;;;;;;;19.97;10.60;;;3.60;99.90;;;;;;5030992;28;20044;-51
2023/01/23 11:05:00;;;;;;;22.00;11.50;;;3.70;99.90;;;;;;5030661;28;20025;-48
2023/01/23 11:07:31;;;;;;;19.77;10.30;;;3.60;99.90;;;;;;5030719;28;20065;-50
2023/01/23 11:10:08;;;;;;;19.63;9.67;;;3.60;99.90;;;;;;5030711;28;20049;-50
2023/01/23 11:12:46;;;;;;;21.43;10.03;;;3.60;99.90;;;;;;5030698;28;20059;-49
2023/01/23 11:15:32;;;;;;;18.30;9.93;;;3.60;99.90;;;;;;5030537;28;20029;-48
2023/01/23 11:17:59;;;;;;;17.87;9.37;;;3.70;99.90;;;;;;5030418;28;20485;-48
2023/01/23 11:20:41;;;;;;;17.57;9.50;;;3.70;99.90;;;;;;5030539;28;20083;-51
2023/01/23 11:23:07;;;;;;;15.27;8.73;;;3.80;99.90;;;;;;5030626;28;20505;-48
2023/01/23 11:25:43;;;;;;;14.90;8.70;;;3.80;99.90;;;;;;5030550;28;20029;-48
2023/01/23 11:28:33;;;;;;;16.87;8.67;;;3.80;99.90;;;;;;5030482;28;20025;-51
2023/01/23 11:31:12;;;;;;;15.70;8.67;;;3.80;99.90;;;;;;5030521;28;20033;-48
2023/01/23 11:33:51;;;;;;;15.70;9.15;;;3.70;99.90;;;;;;5030430;28;20037;-50
2023/01/23 11:36:17;;;;;;;15.23;8.07;;;3.80;99.90;;;;;;5030244;28;20037;-48
2023/01/23 11:38:58;;;;;;;13.57;7.80;;;3.80;99.90;;;;;;5030333;28;20052;-48
2023/01/23 11:41:34;;;;;;;16.00;8.77;;;3.80;99.90;;;;;;5030035;28;20160;-49
2023/01/23 11:44:12;;;;;;;15.13;8.37;;;3.80;99.90;;;;;;5030254;28;20061;-48
2023/01/23 11:46:47;;;;;;;19.17;8.97;;;3.90;99.90;;;;;;5030793;28;20247;-48
2023/01/23 11:49:41;;;;;;;18.73;9.00;;;3.90;99.90;;;;;;5030404;28;20043;-49
2023/01/23 11:52:35;;;;;;;17.67;8.60;;;3.90;99.90;;;;;;5030302;28;20032;-49
2023/01/23 11:55:03;;;;;;;16.50;8.37;;;3.90;99.90;;;;;;5030102;28;20375;-50
2023/01/23 11:58:16;;;;;;;15.80;7.90;;;4.00;99.90;;;;;;5030088;28;20030;-53
2023/01/23 12:01:03;;;;;;;16.67;8.43;;;4.00;99.90;;;;;;5011955;28;20046;-50
2023/01/23 12:04:02;;;;;;;15.53;7.87;;;4.00;99.90;;;;;;5030242;28;20478;-49
2023/01/23 12:06:56;;;;;;;12.00;6.80;;;3.90;99.90;;;;;;5030132;28;20044;-49
2023/01/23 12:09:31;;;;;;;11.37;6.67;;;3.80;99.90;;;;;;5029987;28;20044;-49
2023/01/23 12:12:32;;;;;;;14.30;7.33;;;3.80;99.90;;;;;;5030144;28;20037;-48
2023/01/23 12:15:04;;;;;;;14.33;7.57;;;3.80;99.90;;;;;;5028798;28;20432;-52
2023/01/23 12:17:41;;;;;;;13.13;6.97;;;3.90;99.90;;;;;;5029896;28;20029;-51
2023/01/23 12:20:27;;;;;;;11.67;6.90;;;3.90;99.90;;;;;;5029920;28;20489;-48
2023/01/23 12:23:07;;;;;;;12.37;6.90;;;4.00;99.90;;;;;;5030246;28;20021;-50
2023/01/23 12:25:37;;;;;;;10.63;6.70;;;4.00;99.90;;;;;;5029969;28;20107;-49
2023/01/23 12:28:18;;;;;;;14.47;6.70;;;4.10;99.90;;;;;;5029914;28;20087;-52
2023/01/23 12:31:04;;;;;;;13.03;7.27;;;4.00;99.90;;;;;;5029724;28;20129;-50
2023/01/23 12:33:55;;;;;;;11.40;6.87;;;3.90;99.90;;;;;;5029767;28;20025;-51
2023/01/23 12:36:26;;;;;;;10.80;6.53;;;3.90;99.90;;;;;;5029744;28;20037;-49
2023/01/23 12:39:00;;;;;;;10.10;6.33;;;3.90;99.90;;;;;;5029796;28;20515;-54
2023/01/23 12:41:57;;;;;;;12.43;6.70;;;3.90;99.90;;;;;;5029886;28;20032;-50
2023/01/23 12:44:32;;;;;;;11.70;7.07;;;4.00;99.90;;;;;;5029750;28;20304;-48
2023/01/23 12:47:05;;;;;;;11.03;6.83;;;3.90;99.90;;;;;;5029502;28;20403;-48
2023/01/23 12:49:39;;;;;;;10.10;6.63;;;3.90;99.90;;;;;;5029669;28;20141;-51
2023/01/23 12:52:20;;;;;;;11.67;7.10;;;3.90;99.90;;;;;;5029737;28;20037;-49
2023/01/23 12:54:54;;;;;;;12.03;6.87;;;3.90;99.90;;;;;;5031353;28;20037;-52
2023/01/23 12:57:38;;;;;;;11.80;7.00;;;4.00;99.90;;;;;;5032981;28;20072;-48
2023/01/23 13:00:42;;;;;;;11.70;7.13;;;4.00;99.90;;;;;;5033157;28;20033;-51
2023/01/23 13:03:17;;;;;;;13.17;7.00;;;4.00;99.90;;;;;;4982813;28;20033;-55
2023/01/23 13:05:54;;;;;;;12.70;7.50;;;4.10;99.90;;;;;;5031706;28;20060;-50